Time;durP1;ratioP1;P1;durP2;ratioP2;P2;SDS_P1;SDS_P2;PMS_P1;PMS_P2;Temp;Humidity;BMP_temperature;BMP_pressure;BME280_temperature;BME280_humidity;BME280_pressure;Samples;Min_cycle;Max_cycle;Signal;HPM_P1;HPM_P2
2023/06/24 00:00:29;;;;;;;11.95;9.60;;;22.30;99.90;;;;;;5017070;28;20477;-66
2023/06/24 00:02:54;;;;;;;11.65;9.93;;;22.20;99.90;;;;;;5017265;28;20037;-66
2023/06/24 00:05:20;;;;;;;11.35;9.65;;;22.20;99.90;;;;;;5017830;28;20024;-66
2023/06/24 00:07:45;;;;;;;15.20;9.57;;;22.10;99.90;;;;;;5019701;28;20038;-66
2023/06/24 00:10:13;;;;;;;11.55;10.35;;;22.20;99.90;;;;;;5016813;28;20034;-66
2023/06/24 00:12:41;;;;;;;14.75;11.82;;;22.20;99.90;;;;;;5022668;28;20022;-66
2023/06/24 00:15:09;;;;;;;14.52;10.55;;;22.10;99.90;;;;;;5017800;28;20033;-66
2023/06/24 00:17:35;;;;;;;15.85;9.68;;;22.10;99.90;;;;;;5018941;28;20026;-66
2023/06/24 00:20:04;;;;;;;13.27;11.52;;;22.00;99.90;;;;;;5018649;28;20029;-66
2023/06/24 00:22:29;;;;;;;13.98;11.15;;;22.00;99.90;;;;;;5020130;28;20022;-66
2023/06/24 00:24:56;;;;;;;10.00;9.00;;;22.00;99.90;;;;;;5018540;28;20029;-66
2023/06/24 00:27:22;;;;;;;13.20;9.30;;;22.00;99.90;;;;;;5019925;28;20025;-66
2023/06/24 00:29:47;;;;;;;14.57;11.02;;;22.00;99.90;;;;;;5013342;28;20044;-66
2023/06/24 00:32:13;;;;;;;13.50;11.20;;;22.00;99.90;;;;;;5016184;28;20075;-66
2023/06/24 00:34:43;;;;;;;14.98;11.32;;;22.00;99.90;;;;;;5017804;28;20041;-66
2023/06/24 00:37:09;;;;;;;15.75;12.15;;;22.00;99.90;;;;;;5018368;28;20512;-67
2023/06/24 00:39:35;;;;;;;15.55;13.20;;;21.90;99.90;;;;;;5018206;28;20061;-66
2023/06/24 00:42:01;;;;;;;13.38;12.13;;;21.90;99.90;;;;;;5017963;28;20098;-66
2023/06/24 00:44:27;;;;;;;16.83;12.73;;;21.90;99.90;;;;;;5018456;28;20396;-66
2023/06/24 00:46:54;;;;;;;16.70;13.65;;;21.80;99.90;;;;;;5019125;28;20067;-66
2023/06/24 00:49:20;;;;;;;14.60;12.90;;;21.80;99.90;;;;;;5022813;28;20029;-66
2023/06/24 00:51:50;;;;;;;12.60;11.25;;;21.80;99.90;;;;;;5023357;28;20082;-66
2023/06/24 00:54:16;;;;;;;16.50;13.73;;;21.80;99.90;;;;;;5022761;28;20183;-66
2023/06/24 00:56:42;;;;;;;13.75;12.27;;;21.80;99.90;;;;;;5023918;28;20052;-66
2023/06/24 00:59:12;;;;;;;16.65;13.32;;;21.70;99.90;;;;;;5019105;28;20029;-66
2023/06/24 01:01:39;;;;;;;17.55;15.43;;;21.70;99.90;;;;;;5022992;28;20029;-66
2023/06/24 01:04:06;;;;;;;18.95;17.00;;;21.70;99.90;;;;;;5028469;28;20025;-66
2023/06/24 01:06:32;;;;;;;18.02;14.93;;;21.70;99.90;;;;;;5026187;28;20034;-67
2023/06/24 01:09:00;;;;;;;23.40;19.17;;;21.70;99.90;;;;;;5021015;28;20466;-66
2023/06/24 01:11:27;;;;;;;20.98;18.83;;;21.60;99.90;;;;;;5021217;28;20020;-66
2023/06/24 01:13:53;;;;;;;22.02;18.50;;;21.60;99.90;;;;;;5020871;28;20033;-66
2023/06/24 01:16:45;;;;;;;22.73;18.45;;;21.60;99.90;;;;;;5018777;28;20017;-66
2023/06/24 01:19:34;;;;;;;22.57;18.57;;;21.50;99.90;;;;;;5017566;28;20027;-66
2023/06/24 01:22:20;;;;;;;23.25;19.88;;;21.50;99.90;;;;;;5042964;28;20053;-66
2023/06/24 01:25:12;;;;;;;21.50;19.30;;;21.50;99.90;;;;;;5019085;28;20034;-66
2023/06/24 01:27:56;;;;;;;23.75;20.85;;;21.50;99.90;;;;;;5017219;28;20166;-66
2023/06/24 01:30:31;;;;;;;23.23;20.23;;;21.50;99.90;;;;;;5023724;28;20053;-66
2023/06/24 01:33:03;;;;;;;24.27;21.42;;;21.50;99.90;;;;;;5028413;28;20025;-66
2023/06/24 01:35:32;;;;;;;23.35;19.10;;;21.50;99.90;;;;;;5016289;28;20088;-66
2023/06/24 01:38:03;;;;;;;28.73;20.60;;;21.50;99.90;;;;;;5024526;28;20037;-66
2023/06/24 01:40:42;;;;;;;22.65;18.73;;;21.50;99.90;;;;;;5020296;28;20105;-66
2023/06/24 01:43:09;;;;;;;22.80;19.65;;;21.40;99.90;;;;;;5020414;28;20022;-66
2023/06/24 01:45:43;;;;;;;19.85;17.75;;;21.40;99.90;;;;;;5022577;28;20033;-65
2023/06/24 01:48:15;;;;;;;22.38;19.88;;;21.40;99.90;;;;;;5022913;28;20033;-66
2023/06/24 01:51:13;;;;;;;23.00;19.15;;;21.40;99.90;;;;;;5023722;28;20547;-66
2023/06/24 01:53:48;;;;;;;23.38;20.75;;;21.30;99.90;;;;;;5015778;28;20065;-66
2023/06/24 01:56:16;;;;;;;22.48;19.42;;;21.30;99.90;;;;;;5024545;28;20028;-66
2023/06/24 01:58:44;;;;;;;22.15;19.70;;;21.30;99.90;;;;;;5017132;28;20025;-65
2023/06/24 02:01:11;;;;;;;23.15;20.17;;;21.30;99.90;;;;;;5018120;28;20158;-66
2023/06/24 02:03:40;;;;;;;23.90;20.13;;;21.30;99.90;;;;;;5016364;28;20028;-66
2023/06/24 02:06:09;;;;;;;23.98;21.13;;;21.20;99.90;;;;;;5025468;28;20045;-67
2023/06/24 02:08:37;;;;;;;21.20;18.92;;;21.20;99.90;;;;;;5019584;28;20101;-66
2023/06/24 02:11:04;;;;;;;22.45;20.02;;;21.20;99.90;;;;;;5026508;28;20490;-65
2023/06/24 02:13:32;;;;;;;24.00;20.70;;;21.10;99.90;;;;;;5024232;28;20018;-66
2023/06/24 02:16:00;;;;;;;24.17;19.70;;;21.10;99.90;;;;;;5024673;28;20542;-67
2023/06/24 02:18:27;;;;;;;25.67;19.63;;;21.10;99.90;;;;;;5018608;28;20503;-66
2023/06/24 02:20:53;;;;;;;24.80;20.38;;;21.00;99.90;;;;;;5018666;28;20025;-66
2023/06/24 02:23:21;;;;;;;22.08;19.75;;;21.00;99.90;;;;;;5020269;28;20393;-66
2023/06/24 02:25:49;;;;;;;22.77;19.00;;;21.00;99.90;;;;;;5018962;28;20057;-66
2023/06/24 02:28:15;;;;;;;19.40;17.42;;;21.00;99.90;;;;;;5018815;28;20033;-65
2023/06/24 02:30:42;;;;;;;18.63;16.63;;;20.90;99.90;;;;;;5015059;28;20034;-66
2023/06/24 02:33:09;;;;;;;21.23;17.08;;;20.90;99.90;;;;;;5020523;28;20010;-66
2023/06/24 02:35:34;;;;;;;20.25;16.33;;;20.90;99.90;;;;;;5017770;28;20041;-66
2023/06/24 02:38:00;;;;;;;22.05;17.40;;;20.80;99.90;;;;;;5018574;28;20571;-66
2023/06/24 02:40:27;;;;;;;18.75;16.80;;;20.80;99.90;;;;;;5019115;28;20071;-66
2023/06/24 02:42:53;;;;;;;20.33;15.70;;;20.80;99.90;;;;;;5020706;28;20022;-66
2023/06/24 02:45:19;;;;;;;18.15;15.00;;;20.70;99.90;;;;;;5015382;28;20036;-65
2023/06/24 02:47:46;;;;;;;20.15;16.73;;;20.70;99.90;;;;;;5022546;28;20022;-66
2023/06/24 02:50:14;;;;;;;19.55;15.77;;;20.60;99.90;;;;;;5015906;28;20137;-66
2023/06/24 02:52:40;;;;;;;22.52;17.23;;;20.60;99.90;;;;;;5019009;28;20022;-66
2023/06/24 02:55:07;;;;;;;18.48;14.88;;;20.60;99.90;;;;;;5019249;28;20047;-65
2023/06/24 02:57:36;;;;;;;18.25;14.93;;;20.50;99.90;;;;;;5024384;28;20022;-66
2023/06/24 03:00:08;;;;;;;17.23;14.25;;;20.50;99.90;;;;;;5018441;28;20066;-65
2023/06/24 03:02:35;;;;;;;16.70;14.35;;;20.50;99.90;;;;;;5021976;28;20358;-65
2023/06/24 03:05:02;;;;;;;20.08;14.10;;;20.40;99.90;;;;;;5021822;28;20030;-66
2023/06/24 03:07:27;;;;;;;17.25;14.98;;;20.40;99.90;;;;;;5021246;28;20698;-65
2023/06/24 03:09:53;;;;;;;17.83;16.02;;;20.40;99.90;;;;;;5022625;28;20066;-65
2023/06/24 03:12:19;;;;;;;19.95;15.30;;;20.30;99.90;;;;;;5025937;28;20442;-66
2023/06/24 03:14:45;;;;;;;20.23;15.73;;;20.30;99.90;;;;;;5016592;28;20056;-66
2023/06/24 03:17:11;;;;;;;20.17;16.25;;;20.20;99.90;;;;;;5013842;28;20114;-66
2023/06/24 03:19:37;;;;;;;17.95;15.90;;;20.20;99.90;;;;;;5020772;28;20033;-66
2023/06/24 03:22:03;;;;;;;16.33;13.43;;;20.20;99.90;;;;;;5025468;28;20017;-66
2023/06/24 03:24:29;;;;;;;20.73;14.75;;;20.20;99.90;;;;;;5022196;28;20022;-66
2023/06/24 03:26:56;;;;;;;21.55;15.45;;;20.20;99.90;;;;;;5021196;28;20062;-66
2023/06/24 03:29:23;;;;;;;18.75;15.32;;;20.20;99.90;;;;;;5015264;28;20037;-66
2023/06/24 03:31:49;;;;;;;17.02;13.48;;;20.10;99.90;;;;;;5018000;28;20045;-66
2023/06/24 03:34:16;;;;;;;19.23;14.65;;;20.10;99.90;;;;;;5021121;28;20489;-66
2023/06/24 03:36:42;;;;;;;16.38;14.07;;;20.10;99.90;;;;;;5013906;28;20025;-66
2023/06/24 03:39:08;;;;;;;18.08;14.13;;;20.10;99.90;;;;;;5022151;28;20029;-66
2023/06/24 03:41:34;;;;;;;17.30;12.95;;;20.00;99.90;;;;;;5013452;28;20377;-65
2023/06/24 03:44:00;;;;;;;18.20;15.02;;;20.00;99.90;;;;;;5012757;28;20057;-65
2023/06/24 03:46:26;;;;;;;16.65;13.77;;;20.00;99.90;;;;;;5017639;28;20018;-66
2023/06/24 03:48:51;;;;;;;17.10;13.10;;;19.90;99.90;;;;;;5020588;28;20037;-66
2023/06/24 03:51:17;;;;;;;20.27;13.70;;;19.90;99.90;;;;;;5018725;28;20038;-66
2023/06/24 03:53:43;;;;;;;14.82;13.07;;;19.90;99.90;;;;;;5018295;28;20038;-66
2023/06/24 03:56:09;;;;;;;20.20;14.98;;;19.90;99.90;;;;;;5019460;28;20022;-66
2023/06/24 03:58:34;;;;;;;16.20;13.93;;;19.80;99.90;;;;;;5022263;28;20026;-65
2023/06/24 04:01:01;;;;;;;17.85;13.82;;;19.80;99.90;;;;;;5025821;28;20032;-65
2023/06/24 04:03:27;;;;;;;18.45;13.43;;;19.80;99.90;;;;;;5021050;28;20029;-66
2023/06/24 04:05:56;;;;;;;16.55;14.10;;;19.80;99.90;;;;;;5015070;28;20552;-66
2023/06/24 04:08:23;;;;;;;16.27;12.98;;;19.70;99.90;;;;;;5016390;28;20038;-66
2023/06/24 04:10:49;;;;;;;18.02;13.30;;;19.70;99.90;;;;;;5023678;28;20030;-65
2023/06/24 04:13:14;;;;;;;15.65;12.55;;;19.70;99.90;;;;;;5019177;28;20983;-66
2023/06/24 04:15:40;;;;;;;20.42;13.77;;;19.70;99.90;;;;;;5013895;28;20383;-66
2023/06/24 04:18:06;;;;;;;17.65;13.15;;;19.70;99.90;;;;;;5016687;28;20018;-66
2023/06/24 04:20:31;;;;;;;16.58;14.52;;;19.70;99.90;;;;;;5016395;28;20040;-66
2023/06/24 04:22:58;;;;;;;17.83;13.40;;;19.60;99.90;;;;;;5019712;28;20062;-67
2023/06/24 04:25:24;;;;;;;14.77;12.80;;;19.70;99.90;;;;;;5016873;28;20045;-66
2023/06/24 04:27:49;;;;;;;16.45;14.25;;;19.70;99.90;;;;;;5016654;28;20481;-66
2023/06/24 04:30:15;;;;;;;19.30;15.40;;;19.70;99.90;;;;;;5014782;28;20033;-66
2023/06/24 04:32:41;;;;;;;22.42;14.55;;;19.70;99.90;;;;;;5022551;28;20026;-66
2023/06/24 04:35:07;;;;;;;17.73;14.07;;;19.70;99.90;;;;;;5023001;28;20048;-66
2023/06/24 04:37:32;;;;;;;22.42;15.75;;;19.70;99.90;;;;;;5022086;28;20508;-66
2023/06/24 04:39:58;;;;;;;18.80;13.18;;;19.70;99.90;;;;;;5015431;28;20375;-66
2023/06/24 04:42:24;;;;;;;18.58;15.20;;;19.70;99.90;;;;;;5020633;28;20048;-66
2023/06/24 04:44:50;;;;;;;19.83;14.30;;;19.70;99.90;;;;;;5020181;28;20025;-68
2023/06/24 04:47:17;;;;;;;15.80;14.05;;;19.70;99.90;;;;;;5015787;28;20140;-66
2023/06/24 04:49:43;;;;;;;20.00;15.35;;;19.70;99.90;;;;;;5019851;28;20032;-65
2023/06/24 04:52:11;;;;;;;19.42;15.00;;;19.70;99.90;;;;;;5016092;28;20041;-66
2023/06/24 04:54:36;;;;;;;19.17;14.55;;;19.70;99.90;;;;;;5021529;28;20029;-66
2023/06/24 04:57:02;;;;;;;20.42;14.48;;;19.70;99.90;;;;;;5014023;28;20038;-66
2023/06/24 04:59:28;;;;;;;17.77;14.60;;;19.70;99.90;;;;;;5019007;28;20051;-66
2023/06/24 05:01:54;;;;;;;18.77;14.43;;;19.80;99.90;;;;;;5017759;28;20022;-66
2023/06/24 05:04:20;;;;;;;18.90;14.07;;;19.80;99.90;;;;;;5016768;28;20029;-65
2023/06/24 05:06:45;;;;;;;24.92;15.77;;;19.80;99.90;;;;;;5015204;28;20113;-66
2023/06/24 05:09:13;;;;;;;18.15;14.38;;;19.80;99.90;;;;;;5020937;28;20034;-66
2023/06/24 05:11:40;;;;;;;24.67;13.80;;;19.90;99.90;;;;;;5016012;28;20033;-66
2023/06/24 05:14:06;;;;;;;17.30;13.75;;;19.80;99.90;;;;;;5018330;28;20435;-66
2023/06/24 05:16:31;;;;;;;18.17;13.50;;;19.90;99.90;;;;;;5020848;28;20029;-65
2023/06/24 05:18:57;;;;;;;19.65;14.30;;;19.80;99.90;;;;;;5025505;28;20026;-66
2023/06/24 05:21:23;;;;;;;18.63;13.98;;;19.90;99.90;;;;;;5016909;28;20026;-66
2023/06/24 05:23:48;;;;;;;16.77;13.48;;;19.90;99.90;;;;;;5018501;28;20488;-66
2023/06/24 05:26:14;;;;;;;15.27;12.60;;;19.90;99.90;;;;;;5018036;28;20489;-66
2023/06/24 05:28:40;;;;;;;19.58;13.57;;;20.00;99.90;;;;;;5015699;28;20041;-66
2023/06/24 05:31:05;;;;;;;18.73;13.07;;;20.00;99.90;;;;;;5018054;28;20474;-66
2023/06/24 05:33:31;;;;;;;18.63;12.75;;;20.00;99.90;;;;;;5020298;28;20029;-66
2023/06/24 05:35:57;;;;;;;16.55;12.63;;;20.00;99.90;;;;;;5025444;28;20077;-66
2023/06/24 05:38:23;;;;;;;15.40;12.43;;;20.00;99.90;;;;;;5024578;28;20144;-66
2023/06/24 05:40:48;;;;;;;17.52;12.57;;;20.00;99.90;;;;;;5020669;28;20021;-66
2023/06/24 05:43:14;;;;;;;15.07;12.43;;;20.00;99.90;;;;;;5021764;28;20066;-66
2023/06/24 05:45:40;;;;;;;15.30;11.23;;;20.00;99.90;;;;;;5025018;28;20036;-66
2023/06/24 05:48:06;;;;;;;15.65;11.05;;;19.90;99.90;;;;;;5015436;28;20574;-66
2023/06/24 05:50:31;;;;;;;14.20;11.77;;;20.00;99.90;;;;;;5020389;28;20057;-66
2023/06/24 05:52:58;;;;;;;14.27;11.00;;;20.00;99.90;;;;;;5022759;28;20026;-66
2023/06/24 05:55:23;;;;;;;15.13;10.13;;;20.00;99.90;;;;;;5020842;28;20109;-66
2023/06/24 05:57:49;;;;;;;13.45;9.68;;;20.10;99.90;;;;;;5022165;28;20104;-66
2023/06/24 06:00:15;;;;;;;12.75;10.48;;;20.10;99.90;;;;;;5022960;28;20036;-65
2023/06/24 06:02:40;;;;;;;14.45;9.45;;;20.10;99.90;;;;;;5026469;28;20021;-66
2023/06/24 06:05:06;;;;;;;11.10;9.07;;;20.10;99.90;;;;;;5020164;28;20049;-66
2023/06/24 06:07:32;;;;;;;10.70;8.82;;;20.20;99.90;;;;;;5018068;28;20070;-66
2023/06/24 06:09:57;;;;;;;10.63;8.05;;;20.20;99.90;;;;;;5025222;28;20041;-66
2023/06/24 06:12:23;;;;;;;10.02;7.88;;;20.20;99.90;;;;;;5013262;28;20030;-66
2023/06/24 06:14:49;;;;;;;9.07;7.82;;;20.20;99.90;;;;;;5020267;28;20025;-66
2023/06/24 06:17:15;;;;;;;11.38;7.03;;;20.20;99.90;;;;;;5018526;28;20026;-66
2023/06/24 06:19:41;;;;;;;8.55;5.97;;;20.20;99.90;;;;;;5026146;28;20056;-66
2023/06/24 06:22:07;;;;;;;8.68;6.28;;;20.30;99.90;;;;;;5019821;28;20021;-68
2023/06/24 06:24:33;;;;;;;10.55;6.20;;;20.20;99.90;;;;;;5023900;28;20074;-66
2023/06/24 06:26:59;;;;;;;6.20;5.03;;;20.30;99.90;;;;;;5022232;28;20029;-65
2023/06/24 06:29:25;;;;;;;8.98;4.78;;;20.20;99.90;;;;;;5023669;28;20108;-66
2023/06/24 06:31:52;;;;;;;4.70;4.30;;;20.30;99.90;;;;;;5020232;28;20025;-66
2023/06/24 06:34:18;;;;;;;6.50;4.22;;;20.30;99.90;;;;;;5023746;28;20028;-66
2023/06/24 06:36:44;;;;;;;4.88;3.95;;;20.30;99.90;;;;;;5017908;28;20120;-66
2023/06/24 06:39:09;;;;;;;5.70;4.57;;;20.40;99.90;;;;;;5025918;28;20112;-66
2023/06/24 06:41:35;;;;;;;5.55;4.38;;;20.50;99.90;;;;;;5027839;28;20018;-66
2023/06/24 06:44:01;;;;;;;5.63;4.65;;;20.50;99.90;;;;;;5024910;28;20362;-66
2023/06/24 06:46:26;;;;;;;5.50;4.88;;;20.50;99.90;;;;;;5011621;28;20075;-66
2023/06/24 06:48:52;;;;;;;5.35;4.57;;;20.60;99.90;;;;;;5016329;28;20050;-66
2023/06/24 06:51:18;;;;;;;5.90;4.43;;;20.70;99.90;;;;;;5019019;28;20024;-66
2023/06/24 06:53:44;;;;;;;4.68;4.25;;;20.80;99.90;;;;;;5017547;28;20029;-66
2023/06/24 06:56:17;;;;;;;6.13;4.80;;;20.80;99.90;;;;;;5023361;28;20358;-66
2023/06/24 06:58:43;;;;;;;8.68;5.18;;;20.80;99.90;;;;;;5013757;28;20053;-66
2023/06/24 07:01:09;;;;;;;7.30;5.05;;;20.80;99.90;;;;;;5022281;28;20061;-66
2023/06/24 07:03:34;;;;;;;6.95;5.30;;;21.10;99.90;;;;;;5024551;28;20018;-66
2023/06/24 07:06:00;;;;;;;5.00;4.00;;;21.20;99.90;;;;;;5016298;28;20025;-66
2023/06/24 07:08:26;;;;;;;4.35;3.95;;;21.60;99.90;;;;;;5021536;28;20125;-66
2023/06/24 07:10:51;;;;;;;5.28;4.00;;;21.70;99.90;;;;;;5014738;28;20029;-66
2023/06/24 07:13:17;;;;;;;3.75;3.20;;;21.70;99.90;;;;;;5019221;28;20066;-66
2023/06/24 07:15:42;;;;;;;5.13;3.95;;;21.80;99.90;;;;;;5023914;28;20426;-67
2023/06/24 07:18:08;;;;;;;5.78;4.00;;;22.00;99.90;;;;;;5015692;28;20029;-67
2023/06/24 07:20:34;;;;;;;4.28;3.88;;;22.30;99.90;;;;;;5017961;28;20026;-66
2023/06/24 07:22:59;;;;;;;4.55;3.47;;;22.40;99.90;;;;;;5021330;28;20018;-66
2023/06/24 07:25:26;;;;;;;7.07;3.45;;;22.50;99.90;;;;;;5019749;28;20501;-66
2023/06/24 07:27:51;;;;;;;5.70;4.07;;;22.60;99.90;;;;;;5018347;28;20034;-66
2023/06/24 07:30:17;;;;;;;8.18;4.30;;;22.70;99.90;;;;;;5025595;28;20037;-66
2023/06/24 07:32:43;;;;;;;3.90;3.60;;;23.00;99.90;;;;;;5019999;28;20028;-66
2023/06/24 07:35:09;;;;;;;4.43;3.72;;;23.20;99.90;;;;;;5021258;28;20061;-66
2023/06/24 07:37:35;;;;;;;4.53;3.47;;;23.30;99.90;;;;;;5015222;28;20041;-66
2023/06/24 07:40:03;;;;;;;4.63;3.88;;;23.50;99.90;;;;;;5016966;28;20540;-66
2023/06/24 07:42:28;;;;;;;6.32;3.13;;;23.40;99.90;;;;;;5020033;28;20365;-66
2023/06/24 07:44:54;;;;;;;3.38;3.08;;;23.60;99.90;;;;;;5018511;28;20025;-69
2023/06/24 07:47:20;;;;;;;7.07;4.07;;;23.80;99.90;;;;;;5020635;28;20032;-66
2023/06/24 07:49:45;;;;;;;5.55;3.58;;;24.00;99.90;;;;;;5016915;28;20037;-66
2023/06/24 07:52:11;;;;;;;3.65;3.30;;;24.10;99.90;;;;;;5017154;28;20074;-66
2023/06/24 07:54:37;;;;;;;3.53;3.00;;;24.20;99.90;;;;;;5016827;28;20037;-66
2023/06/24 07:57:03;;;;;;;5.30;3.30;;;24.20;99.90;;;;;;5017228;28;20457;-66
2023/06/24 07:59:28;;;;;;;3.10;2.85;;;24.10;99.90;;;;;;5021297;28;20032;-67
2023/06/24 08:01:54;;;;;;;3.60;2.63;;;24.20;99.90;;;;;;5016797;28;20030;-69
2023/06/24 08:04:20;;;;;;;2.88;2.67;;;24.20;99.90;;;;;;5018101;28;20044;-68
2023/06/24 08:06:45;;;;;;;4.55;3.17;;;24.20;99.90;;;;;;5019052;28;20390;-69
2023/06/24 08:09:11;;;;;;;4.63;2.92;;;24.20;99.90;;;;;;5018347;28;20389;-66
2023/06/24 08:11:37;;;;;;;2.85;2.50;;;24.20;99.90;;;;;;5020869;28;20033;-70
2023/06/24 08:14:03;;;;;;;6.00;3.30;;;24.30;99.90;;;;;;5019281;28;20091;-70
2023/06/24 08:16:29;;;;;;;3.08;2.78;;;24.30;99.90;;;;;;5018793;28;20712;-68
2023/06/24 08:18:55;;;;;;;5.85;3.28;;;24.30;99.90;;;;;;5020595;28;20198;-69
2023/06/24 08:21:21;;;;;;;3.50;3.20;;;24.40;99.90;;;;;;5015484;28;20478;-68
2023/06/24 08:23:46;;;;;;;3.50;3.20;;;24.40;99.90;;;;;;5020311;28;20036;-69
2023/06/24 08:26:12;;;;;;;4.35;3.50;;;24.60;99.90;;;;;;5019188;28;20025;-68
2023/06/24 08:28:38;;;;;;;2.72;2.53;;;24.80;99.90;;;;;;5019360;28;20044;-69
2023/06/24 08:31:04;;;;;;;3.25;2.95;;;24.90;99.90;;;;;;5015621;28;20398;-69
2023/06/24 08:33:29;;;;;;;3.40;3.10;;;24.80;99.90;;;;;;5024303;28;20028;-67
2023/06/24 08:35:55;;;;;;;3.03;2.72;;;24.80;99.90;;;;;;5020055;28;20436;-66
2023/06/24 08:38:20;;;;;;;3.78;3.30;;;24.70;99.90;;;;;;5017516;28;20053;-66
2023/06/24 08:40:47;;;;;;;3.92;3.25;;;24.90;99.90;;;;;;5019197;28;20026;-66
2023/06/24 08:43:13;;;;;;;5.82;3.53;;;25.20;99.90;;;;;;5014821;28;20030;-67
2023/06/24 08:45:38;;;;;;;3.53;3.17;;;25.40;99.90;;;;;;5016241;28;20561;-70
2023/06/24 08:48:05;;;;;;;3.03;2.83;;;25.50;99.90;;;;;;5018106;28;20026;-67
2023/06/24 08:50:43;;;;;;;5.47;3.15;;;25.50;99.90;;;;;;5017654;28;20026;-69
2023/06/24 08:53:10;;;;;;;2.88;2.58;;;25.70;99.90;;;;;;5013370;28;20244;-66
2023/06/24 08:55:46;;;;;;;3.22;2.78;;;25.90;99.90;;;;;;5017891;28;20032;-67
2023/06/24 08:58:13;;;;;;;3.25;2.95;;;25.90;99.90;;;;;;5017411;28;20022;-67
2023/06/24 09:00:39;;;;;;;3.22;2.67;;;25.90;99.90;;;;;;5024958;28;20057;-66
2023/06/24 09:03:05;;;;;;;3.30;3.00;;;25.90;99.90;;;;;;5021583;28;20022;-67
2023/06/24 09:05:31;;;;;;;2.70;2.50;;;26.20;99.90;;;;;;5012692;28;20022;-67
2023/06/24 09:07:56;;;;;;;2.58;2.38;;;26.40;99.90;;;;;;5021140;28;20037;-67
2023/06/24 09:10:36;;;;;;;2.63;2.42;;;26.40;99.90;;;;;;5019195;28;20094;-66
2023/06/24 09:13:04;;;;;;;6.22;2.47;;;26.70;99.90;;;;;;5022902;28;20074;-67
2023/06/24 09:15:31;;;;;;;5.63;2.65;;;26.70;99.90;;;;;;5020516;28;20068;-69
2023/06/24 09:17:56;;;;;;;4.25;2.80;;;26.80;99.90;;;;;;5020104;28;20545;-67
2023/06/24 09:20:22;;;;;;;3.40;2.60;;;26.60;99.90;;;;;;5024461;28;20100;-67
2023/06/24 09:22:49;;;;;;;2.45;2.22;;;26.70;99.90;;;;;;5021223;28;20050;-67
2023/06/24 09:25:21;;;;;;;3.03;2.58;;;26.70;99.90;;;;;;5021297;28;20030;-66
2023/06/24 09:27:52;;;;;;;3.00;2.28;;;26.90;99.90;;;;;;5017599;28;20032;-67
2023/06/24 09:30:23;;;;;;;4.55;2.38;;;27.10;99.90;;;;;;5021205;28;20038;-69
2023/06/24 09:32:50;;;;;;;3.88;2.05;;;27.10;99.90;;;;;;5022466;28;20020;-67
2023/06/24 09:35:24;;;;;;;2.53;2.10;;;27.20;99.90;;;;;;5019994;28;20029;-67
2023/06/24 09:37:54;;;;;;;2.50;2.30;;;27.50;99.90;;;;;;5022238;28;20025;-67
2023/06/24 09:40:21;;;;;;;3.40;1.90;;;27.70;99.90;;;;;;5020373;28;20126;-66
2023/06/24 09:42:54;;;;;;;2.83;1.98;;;27.90;98.60;;;;;;5021904;28;20393;-67
2023/06/24 09:45:27;;;;;;;2.83;2.53;;;28.00;99.90;;;;;;5020576;28;20049;-67
2023/06/24 09:47:54;;;;;;;2.30;2.10;;;28.20;99.90;;;;;;5019801;28;20037;-67
2023/06/24 09:50:20;;;;;;;3.20;2.08;;;28.30;98.30;;;;;;5020159;28;20112;-66
2023/06/24 09:52:49;;;;;;;3.08;2.42;;;28.50;99.90;;;;;;5015997;28;20026;-67
2023/06/24 09:55:16;;;;;;;2.10;1.90;;;28.50;98.60;;;;;;5025273;28;20057;-67
2023/06/24 09:57:46;;;;;;;6.97;3.67;;;28.60;99.90;;;;;;5020656;28;20029;-67
2023/06/24 10:00:18;;;;;;;7.68;3.10;;;28.50;98.80;;;;;;5018596;28;20060;-67
2023/06/24 10:02:45;;;;;;;3.00;2.10;;;28.50;99.90;;;;;;5021737;28;20033;-66
2023/06/24 10:05:14;;;;;;;2.83;2.35;;;28.50;99.90;;;;;;5018827;28;20087;-67
2023/06/24 10:07:41;;;;;;;8.30;2.92;;;28.60;97.80;;;;;;5015263;28;20086;-68
2023/06/24 10:10:07;;;;;;;10.20;3.75;;;28.60;97.80;;;;;;5019263;28;20034;-67
2023/06/24 10:12:35;;;;;;;6.43;2.90;;;28.60;98.30;;;;;;5022553;28;20030;-70
2023/06/24 10:15:01;;;;;;;2.42;1.80;;;28.80;99.10;;;;;;5025194;28;20501;-70
2023/06/24 10:17:27;;;;;;;2.10;1.90;;;28.90;98.00;;;;;;5017886;28;20498;-67
2023/06/24 10:19:56;;;;;;;3.80;1.90;;;28.50;96.90;;;;;;5017387;28;20086;-67
2023/06/24 10:22:28;;;;;;;5.13;1.60;;;28.80;97.10;;;;;;5028350;28;20082;-67
2023/06/24 10:24:54;;;;;;;2.65;2.22;;;29.00;96.40;;;;;;5025059;28;20481;-67
2023/06/24 10:27:22;;;;;;;2.40;2.15;;;29.10;96.00;;;;;;5020122;28;20034;-67
2023/06/24 10:29:51;;;;;;;2.08;1.80;;;29.20;95.70;;;;;;5019029;28;20030;-67
2023/06/24 10:32:18;;;;;;;1.98;1.77;;;29.20;93.10;;;;;;5024473;28;20073;-67
2023/06/24 10:34:46;;;;;;;3.05;1.85;;;29.30;95.50;;;;;;5020782;28;20029;-67
2023/06/24 10:37:19;;;;;;;3.80;2.00;;;29.20;95.90;;;;;;5021025;28;20034;-67
2023/06/24 10:39:55;;;;;;;2.47;2.05;;;29.20;95.70;;;;;;5013132;28;20026;-66
2023/06/24 10:42:42;;;;;;;2.10;1.92;;;29.20;94.30;;;;;;5020598;28;20494;-67
2023/06/24 10:45:16;;;;;;;2.38;1.95;;;29.40;93.50;;;;;;5023316;28;20462;-67
2023/06/24 10:48:00;;;;;;;2.28;2.08;;;29.50;94.60;;;;;;5026471;28;20464;-67
2023/06/24 10:50:26;;;;;;;2.08;1.83;;;29.70;92.90;;;;;;5020230;28;20095;-67
2023/06/24 10:52:56;;;;;;;2.28;2.13;;;29.90;93.70;;;;;;5017625;28;20135;-67
2023/06/24 10:55:28;;;;;;;3.13;1.65;;;30.00;92.40;;;;;;5023529;28;20048;-67
2023/06/24 10:57:54;;;;;;;3.05;1.88;;;30.00;91.40;;;;;;5022477;28;20520;-66
2023/06/24 11:00:21;;;;;;;2.22;1.95;;;30.00;90.90;;;;;;5017865;28;20041;-67
2023/06/24 11:02:46;;;;;;;1.70;1.60;;;30.00;90.10;;;;;;5017975;28;20022;-66
2023/06/24 11:05:12;;;;;;;2.88;1.50;;;30.00;92.40;;;;;;5022835;28;20503;-67
2023/06/24 11:07:39;;;;;;;3.67;1.92;;;30.10;92.90;;;;;;5022748;28;20044;-67
2023/06/24 11:10:10;;;;;;;2.42;1.95;;;30.30;93.90;;;;;;5019690;28;20033;-68
2023/06/24 11:12:38;;;;;;;4.55;2.10;;;30.40;94.20;;;;;;5018606;28;20036;-67
2023/06/24 11:15:12;;;;;;;2.22;2.03;;;30.40;89.70;;;;;;5022901;28;20530;-67
2023/06/24 11:17:39;;;;;;;2.20;1.70;;;30.50;90.90;;;;;;5020383;28;20026;-67
2023/06/24 11:20:13;;;;;;;2.97;2.10;;;30.50;89.10;;;;;;5019665;28;20013;-66
2023/06/24 11:22:43;;;;;;;3.67;2.10;;;30.70;92.70;;;;;;5015562;28;20041;-67
2023/06/24 11:25:19;;;;;;;1.80;1.70;;;30.50;86.50;;;;;;5017621;28;20500;-67
2023/06/24 11:27:46;;;;;;;1.90;1.80;;;30.40;90.60;;;;;;5020242;28;20087;-66
2023/06/24 11:30:12;;;;;;;3.25;1.65;;;30.70;90.00;;;;;;5023339;28;20038;-67
2023/06/24 11:32:40;;;;;;;3.40;1.50;;;30.60;87.60;;;;;;5021696;28;20024;-67
2023/06/24 11:35:08;;;;;;;2.42;1.70;;;30.70;83.60;;;;;;5020868;28;20038;-67
2023/06/24 11:37:34;;;;;;;2.20;1.80;;;30.80;85.90;;;;;;5022916;28;20028;-66
2023/06/24 11:40:04;;;;;;;3.17;1.90;;;30.90;89.70;;;;;;5016598;28;20034;-67
2023/06/24 11:42:31;;;;;;;3.00;2.08;;;30.90;85.20;;;;;;5021387;28;20078;-66
2023/06/24 11:45:02;;;;;;;2.20;2.00;;;30.90;85.00;;;;;;5018686;28;20018;-67
2023/06/24 11:47:32;;;;;;;2.17;2.03;;;30.90;90.10;;;;;;5018484;28;20026;-67
2023/06/24 11:49:58;;;;;;;3.47;2.08;;;30.90;90.00;;;;;;5017889;28;20589;-66
2023/06/24 11:52:41;;;;;;;3.22;2.17;;;31.10;90.10;;;;;;5019412;28;20029;-67
2023/06/24 11:55:21;;;;;;;2.40;2.20;;;31.10;88.50;;;;;;5018723;28;20624;-67
2023/06/24 11:58:02;;;;;;;4.63;2.50;;;31.10;85.70;;;;;;5018226;28;20024;-67
2023/06/24 12:00:30;;;;;;;3.92;1.90;;;31.20;87.30;;;;;;5018421;28;20062;-66
2023/06/24 12:03:05;;;;;;;3.25;2.10;;;31.20;86.60;;;;;;5020874;28;20082;-67
2023/06/24 12:05:32;;;;;;;2.67;2.22;;;31.30;87.80;;;;;;5017285;28;20940;-67
2023/06/24 12:08:16;;;;;;;2.08;1.85;;;31.50;85.20;;;;;;5021245;28;20135;-66
2023/06/24 12:10:43;;;;;;;2.15;1.95;;;31.00;83.00;;;;;;5018805;28;20508;-66
2023/06/24 12:13:09;;;;;;;4.00;2.08;;;30.80;84.20;;;;;;5017352;28;20029;-66
2023/06/24 12:15:35;;;;;;;2.03;1.83;;;31.20;90.20;;;;;;5017439;28;20078;-66
2023/06/24 12:18:05;;;;;;;2.58;2.38;;;31.10;85.30;;;;;;5022318;28;20021;-66
2023/06/24 12:20:31;;;;;;;1.95;1.85;;;31.30;84.20;;;;;;5022039;28;20036;-66
2023/06/24 12:22:58;;;;;;;5.00;1.90;;;31.40;82.90;;;;;;5019912;28;20109;-66
2023/06/24 12:25:23;;;;;;;2.25;2.05;;;31.30;83.60;;;;;;5013587;28;20018;-67
2023/06/24 12:27:50;;;;;;;3.25;2.05;;;31.20;83.30;;;;;;5022451;28;20022;-67
2023/06/24 12:30:16;;;;;;;2.30;2.10;;;31.30;85.80;;;;;;5017718;28;20443;-66
2023/06/24 12:32:42;;;;;;;2.72;1.92;;;31.40;84.80;;;;;;5021053;28;20036;-67
2023/06/24 12:35:12;;;;;;;3.97;2.15;;;31.50;85.40;;;;;;5014947;28;20030;-68
2023/06/24 12:37:37;;;;;;;3.15;2.20;;;31.50;85.10;;;;;;5021219;28;20022;-66
2023/06/24 12:40:04;;;;;;;2.15;1.90;;;31.40;82.60;;;;;;5017601;28;20042;-67